sensor_id;sensor_type;location;lat;lon;timestamp;temperature;humidity
9103;DHT22;4587;51.434;6.788;2023-03-03T00:00:38;2.50;99.90
9103;DHT22;4587;51.434;6.788;2023-03-03T00:03:06;2.50;99.90
9103;DHT22;4587;51.434;6.788;2023-03-03T00:05:33;2.50;99.90
9103;DHT22;4587;51.434;6.788;2023-03-03T00:07:59;2.60;99.90
9103;DHT22;4587;51.434;6.788;2023-03-03T00:10:25;2.50;99.90
9103;DHT22;4587;51.434;6.788;2023-03-03T00:12:50;2.50;99.90
9103;DHT22;4587;51.434;6.788;2023-03-03T00:15:21;2.50;99.90
9103;DHT22;4587;51.434;6.788;2023-03-03T00:17:47;2.60;99.90
9103;DHT22;4587;51.434;6.788;2023-03-03T00:22:54;2.70;99.90
9103;DHT22;4587;51.434;6.788;2023-03-03T00:25:29;2.70;99.90
9103;DHT22;4587;51.434;6.788;2023-03-03T00:28:06;2.60;99.90
9103;DHT22;4587;51.434;6.788;2023-03-03T00:30:32;2.70;99.90
9103;DHT22;4587;51.434;6.788;2023-03-03T00:32:57;2.70;99.90
9103;DHT22;4587;51.434;6.788;2023-03-03T00:35:29;2.70;99.90
9103;DHT22;4587;51.434;6.788;2023-03-03T00:38:00;2.70;99.90
9103;DHT22;4587;51.434;6.788;2023-03-03T00:40:34;2.70;99.90
9103;DHT22;4587;51.434;6.788;2023-03-03T00:43:01;2.70;99.90
9103;DHT22;4587;51.434;6.788;2023-03-03T00:45:44;2.70;99.90
9103;DHT22;4587;51.434;6.788;2023-03-03T00:50:58;2.70;99.90
9103;DHT22;4587;51.434;6.788;2023-03-03T00:53:26;2.70;99.90
9103;DHT22;4587;51.434;6.788;2023-03-03T00:55:54;2.70;99.90
9103;DHT22;4587;51.434;6.788;2023-03-03T00:58:21;2.70;99.90
9103;DHT22;4587;51.434;6.788;2023-03-03T01:00:49;2.70;99.90
9103;DHT22;4587;51.434;6.788;2023-03-03T01:03:18;2.70;99.90
9103;DHT22;4587;51.434;6.788;2023-03-03T01:05:44;2.80;99.90
9103;DHT22;4587;51.434;6.788;2023-03-03T01:08:10;2.70;99.90
9103;DHT22;4587;51.434;6.788;2023-03-03T01:10:41;2.60;99.90
9103;DHT22;4587;51.434;6.788;2023-03-03T01:13:09;2.70;99.90
9103;DHT22;4587;51.434;6.788;2023-03-03T01:15:35;2.70;99.90
9103;DHT22;4587;51.434;6.788;2023-03-03T01:18:02;2.70;99.90
9103;DHT22;4587;51.434;6.788;2023-03-03T01:20:27;2.70;99.90
9103;DHT22;4587;51.434;6.788;2023-03-03T01:22:53;2.70;99.90
9103;DHT22;4587;51.434;6.788;2023-03-03T01:25:18;2.80;99.90
9103;DHT22;4587;51.434;6.788;2023-03-03T01:27:44;2.70;99.90
9103;DHT22;4587;51.434;6.788;2023-03-03T01:30:10;2.70;99.90
9103;DHT22;4587;51.434;6.788;2023-03-03T01:32:36;2.70;99.90
9103;DHT22;4587;51.434;6.788;2023-03-03T01:35:01;2.70;99.90
9103;DHT22;4587;51.434;6.788;2023-03-03T01:37:27;2.70;99.90
9103;DHT22;4587;51.434;6.788;2023-03-03T01:39:53;2.60;99.90
9103;DHT22;4587;51.434;6.788;2023-03-03T01:42:20;2.60;99.90
9103;DHT22;4587;51.434;6.788;2023-03-03T01:44:46;2.50;99.90
9103;DHT22;4587;51.434;6.788;2023-03-03T01:47:19;2.50;99.90
9103;DHT22;4587;51.434;6.788;2023-03-03T01:49:59;2.50;99.90
9103;DHT22;4587;51.434;6.788;2023-03-03T01:52:33;2.50;99.90
9103;DHT22;4587;51.434;6.788;2023-03-03T01:55:20;2.50;99.90
9103;DHT22;4587;51.434;6.788;2023-03-03T01:57:59;2.50;99.90
9103;DHT22;4587;51.434;6.788;2023-03-03T02:00:26;2.60;99.90
9103;DHT22;4587;51.434;6.788;2023-03-03T02:02:53;2.50;99.90
9103;DHT22;4587;51.434;6.788;2023-03-03T02:05:19;2.50;99.90
9103;DHT22;4587;51.434;6.788;2023-03-03T02:07:45;2.50;99.90
9103;DHT22;4587;51.434;6.788;2023-03-03T02:10:14;2.50;99.90
9103;DHT22;4587;51.434;6.788;2023-03-03T02:12:53;2.50;99.90
9103;DHT22;4587;51.434;6.788;2023-03-03T02:15:23;2.50;99.90
9103;DHT22;4587;51.434;6.788;2023-03-03T02:17:53;2.50;99.90
9103;DHT22;4587;51.434;6.788;2023-03-03T02:25:45;2.50;99.90
9103;DHT22;4587;51.434;6.788;2023-03-03T02:28:14;2.50;99.90
9103;DHT22;4587;51.434;6.788;2023-03-03T02:30:40;2.40;99.90
9103;DHT22;4587;51.434;6.788;2023-03-03T02:33:05;2.40;99.90
9103;DHT22;4587;51.434;6.788;2023-03-03T02:35:34;2.40;99.90
9103;DHT22;4587;51.434;6.788;2023-03-03T02:38:29;2.40;99.90
9103;DHT22;4587;51.434;6.788;2023-03-03T02:46:18;2.50;99.90
9103;DHT22;4587;51.434;6.788;2023-03-03T02:48:44;2.40;99.90
9103;DHT22;4587;51.434;6.788;2023-03-03T02:51:09;2.40;99.90
9103;DHT22;4587;51.434;6.788;2023-03-03T02:53:35;2.40;99.90
9103;DHT22;4587;51.434;6.788;2023-03-03T02:56:00;2.30;99.90
9103;DHT22;4587;51.434;6.788;2023-03-03T02:58:26;2.30;99.90
9103;DHT22;4587;51.434;6.788;2023-03-03T03:00:51;2.20;99.90
9103;DHT22;4587;51.434;6.788;2023-03-03T03:03:17;2.30;99.90
9103;DHT22;4587;51.434;6.788;2023-03-03T03:05:42;2.20;99.90
9103;DHT22;4587;51.434;6.788;2023-03-03T03:08:08;2.20;99.90
9103;DHT22;4587;51.434;6.788;2023-03-03T03:10:36;2.20;99.90
9103;DHT22;4587;51.434;6.788;2023-03-03T03:13:01;2.30;99.90
9103;DHT22;4587;51.434;6.788;2023-03-03T03:15:27;2.20;99.90
9103;DHT22;4587;51.434;6.788;2023-03-03T03:17:52;2.10;99.90
9103;DHT22;4587;51.434;6.788;2023-03-03T03:20:18;2.10;99.90
9103;DHT22;4587;51.434;6.788;2023-03-03T03:22:43;2.20;99.90
9103;DHT22;4587;51.434;6.788;2023-03-03T03:25:09;2.20;99.90
9103;DHT22;4587;51.434;6.788;2023-03-03T03:27:35;2.10;99.90
9103;DHT22;4587;51.434;6.788;2023-03-03T03:30:00;2.10;99.90
9103;DHT22;4587;51.434;6.788;2023-03-03T03:32:26;2.10;99.90
9103;DHT22;4587;51.434;6.788;2023-03-03T03:34:51;2.10;99.90
9103;DHT22;4587;51.434;6.788;2023-03-03T03:37:17;2.10;99.90
9103;DHT22;4587;51.434;6.788;2023-03-03T03:39:43;2.20;99.90
9103;DHT22;4587;51.434;6.788;2023-03-03T03:42:08;2.10;99.90
9103;DHT22;4587;51.434;6.788;2023-03-03T03:44:34;2.10;99.90
9103;DHT22;4587;51.434;6.788;2023-03-03T03:46:59;2.10;99.90
9103;DHT22;4587;51.434;6.788;2023-03-03T03:49:25;2.00;99.90
9103;DHT22;4587;51.434;6.788;2023-03-03T03:51:51;2.00;99.90
9103;DHT22;4587;51.434;6.788;2023-03-03T03:54:16;2.00;99.90
9103;DHT22;4587;51.434;6.788;2023-03-03T03:56:42;2.10;99.90
9103;DHT22;4587;51.434;6.788;2023-03-03T03:59:07;2.10;99.90
9103;DHT22;4587;51.434;6.788;2023-03-03T04:01:33;2.10;99.90
9103;DHT22;4587;51.434;6.788;2023-03-03T04:03:59;2.10;99.90
9103;DHT22;4587;51.434;6.788;2023-03-03T04:06:24;2.10;99.90
9103;DHT22;4587;51.434;6.788;2023-03-03T04:08:50;2.20;99.90
9103;DHT22;4587;51.434;6.788;2023-03-03T04:11:15;2.20;99.90
9103;DHT22;4587;51.434;6.788;2023-03-03T04:13:41;2.10;99.90
9103;DHT22;4587;51.434;6.788;2023-03-03T04:16:07;2.00;99.90
9103;DHT22;4587;51.434;6.788;2023-03-03T04:18:32;2.10;99.90
9103;DHT22;4587;51.434;6.788;2023-03-03T04:20:58;2.10;99.90
9103;DHT22;4587;51.434;6.788;2023-03-03T04:23:24;2.10;99.90
9103;DHT22;4587;51.434;6.788;2023-03-03T04:25:49;2.00;99.90
9103;DHT22;4587;51.434;6.788;2023-03-03T04:28:16;2.10;99.90
9103;DHT22;4587;51.434;6.788;2023-03-03T04:30:41;2.10;99.90
9103;DHT22;4587;51.434;6.788;2023-03-03T04:33:07;2.10;99.90
9103;DHT22;4587;51.434;6.788;2023-03-03T04:35:33;2.10;99.90
9103;DHT22;4587;51.434;6.788;2023-03-03T04:37:59;2.10;99.90
9103;DHT22;4587;51.434;6.788;2023-03-03T04:40:24;2.00;99.90
9103;DHT22;4587;51.434;6.788;2023-03-03T04:42:50;2.10;99.90
9103;DHT22;4587;51.434;6.788;2023-03-03T04:45:16;2.10;99.90
9103;DHT22;4587;51.434;6.788;2023-03-03T04:47:41;2.10;99.90
9103;DHT22;4587;51.434;6.788;2023-03-03T04:50:09;2.00;99.90
9103;DHT22;4587;51.434;6.788;2023-03-03T04:52:34;2.00;99.90
9103;DHT22;4587;51.434;6.788;2023-03-03T04:55:00;2.10;99.90
9103;DHT22;4587;51.434;6.788;2023-03-03T04:57:26;2.00;99.90
9103;DHT22;4587;51.434;6.788;2023-03-03T04:59:51;2.00;99.90
9103;DHT22;4587;51.434;6.788;2023-03-03T05:02:17;2.00;99.90
9103;DHT22;4587;51.434;6.788;2023-03-03T05:04:42;2.10;99.90
9103;DHT22;4587;51.434;6.788;2023-03-03T05:07:08;2.00;99.90
9103;DHT22;4587;51.434;6.788;2023-03-03T05:09:34;2.10;99.90
9103;DHT22;4587;51.434;6.788;2023-03-03T05:12:00;2.10;99.90
9103;DHT22;4587;51.434;6.788;2023-03-03T05:14:26;2.00;99.90
9103;DHT22;4587;51.434;6.788;2023-03-03T05:16:52;2.00;99.90
9103;DHT22;4587;51.434;6.788;2023-03-03T05:19:17;2.10;99.90
9103;DHT22;4587;51.434;6.788;2023-03-03T05:21:43;2.10;99.90
9103;DHT22;4587;51.434;6.788;2023-03-03T05:24:10;2.10;99.90
9103;DHT22;4587;51.434;6.788;2023-03-03T05:26:36;2.10;99.90
9103;DHT22;4587;51.434;6.788;2023-03-03T05:29:02;2.10;99.90
9103;DHT22;4587;51.434;6.788;2023-03-03T05:31:28;2.10;99.90
9103;DHT22;4587;51.434;6.788;2023-03-03T05:33:54;2.10;99.90
9103;DHT22;4587;51.434;6.788;2023-03-03T05:36:19;2.10;99.90
9103;DHT22;4587;51.434;6.788;2023-03-03T05:38:45;2.10;99.90
9103;DHT22;4587;51.434;6.788;2023-03-03T05:41:10;2.00;99.90
9103;DHT22;4587;51.434;6.788;2023-03-03T05:43:36;2.00;99.90
9103;DHT22;4587;51.434;6.788;2023-03-03T05:46:02;2.00;99.90
9103;DHT22;4587;51.434;6.788;2023-03-03T05:48:28;2.00;99.90
9103;DHT22;4587;51.434;6.788;2023-03-03T05:50:56;2.00;99.90
9103;DHT22;4587;51.434;6.788;2023-03-03T05:53:22;2.00;99.90
9103;DHT22;4587;51.434;6.788;2023-03-03T05:55:48;2.00;99.90
9103;DHT22;4587;51.434;6.788;2023-03-03T05:58:13;2.00;99.90
9103;DHT22;4587;51.434;6.788;2023-03-03T06:00:39;2.10;99.90
9103;DHT22;4587;51.434;6.788;2023-03-03T06:03:04;2.10;99.90
9103;DHT22;4587;51.434;6.788;2023-03-03T06:05:30;2.10;99.90
9103;DHT22;4587;51.434;6.788;2023-03-03T06:07:56;2.00;99.90
9103;DHT22;4587;51.434;6.788;2023-03-03T06:10:21;2.10;99.90
9103;DHT22;4587;51.434;6.788;2023-03-03T06:12:47;2.00;99.90
9103;DHT22;4587;51.434;6.788;2023-03-03T06:15:12;2.10;99.90
9103;DHT22;4587;51.434;6.788;2023-03-03T06:17:38;2.00;99.90
9103;DHT22;4587;51.434;6.788;2023-03-03T06:20:04;2.10;99.90
9103;DHT22;4587;51.434;6.788;2023-03-03T06:22:31;2.10;99.90
9103;DHT22;4587;51.434;6.788;2023-03-03T06:24:57;2.10;99.90
9103;DHT22;4587;51.434;6.788;2023-03-03T06:27:22;2.20;99.90
9103;DHT22;4587;51.434;6.788;2023-03-03T06:29:48;2.10;99.90
9103;DHT22;4587;51.434;6.788;2023-03-03T06:32:14;2.10;99.90
9103;DHT22;4587;51.434;6.788;2023-03-03T06:34:39;2.00;99.90
9103;DHT22;4587;51.434;6.788;2023-03-03T06:37:05;2.10;99.90
9103;DHT22;4587;51.434;6.788;2023-03-03T06:39:31;2.10;99.90
9103;DHT22;4587;51.434;6.788;2023-03-03T06:41:57;2.10;99.90
9103;DHT22;4587;51.434;6.788;2023-03-03T06:44:22;2.10;99.90
9103;DHT22;4587;51.434;6.788;2023-03-03T06:46:48;2.10;99.90
9103;DHT22;4587;51.434;6.788;2023-03-03T06:49:13;2.10;99.90
9103;DHT22;4587;51.434;6.788;2023-03-03T06:51:39;2.10;99.90
9103;DHT22;4587;51.434;6.788;2023-03-03T06:54:14;2.10;99.90
9103;DHT22;4587;51.434;6.788;2023-03-03T06:56:40;2.10;99.90
9103;DHT22;4587;51.434;6.788;2023-03-03T06:59:14;2.10;99.90
9103;DHT22;4587;51.434;6.788;2023-03-03T07:01:40;2.20;99.90
9103;DHT22;4587;51.434;6.788;2023-03-03T07:04:29;2.20;99.90
9103;DHT22;4587;51.434;6.788;2023-03-03T07:06:57;2.20;99.90
9103;DHT22;4587;51.434;6.788;2023-03-03T07:09:28;2.30;99.90
9103;DHT22;4587;51.434;6.788;2023-03-03T07:12:10;2.30;99.90
9103;DHT22;4587;51.434;6.788;2023-03-03T07:14:42;2.20;99.90
9103;DHT22;4587;51.434;6.788;2023-03-03T07:17:15;2.20;99.90
9103;DHT22;4587;51.434;6.788;2023-03-03T07:19:42;2.30;99.90
9103;DHT22;4587;51.434;6.788;2023-03-03T07:22:18;2.30;99.90
9103;DHT22;4587;51.434;6.788;2023-03-03T07:24:47;2.30;99.90
9103;DHT22;4587;51.434;6.788;2023-03-03T07:27:24;2.30;99.90
9103;DHT22;4587;51.434;6.788;2023-03-03T07:29:51;2.30;99.90
9103;DHT22;4587;51.434;6.788;2023-03-03T07:34:55;2.40;99.90
9103;DHT22;4587;51.434;6.788;2023-03-03T07:37:37;2.40;99.90
9103;DHT22;4587;51.434;6.788;2023-03-03T07:40:27;2.50;99.90
9103;DHT22;4587;51.434;6.788;2023-03-03T07:42:55;2.50;99.90
9103;DHT22;4587;51.434;6.788;2023-03-03T07:45:30;2.40;99.90
9103;DHT22;4587;51.434;6.788;2023-03-03T07:50:47;2.40;99.90
9103;DHT22;4587;51.434;6.788;2023-03-03T07:53:26;2.50;99.90
9103;DHT22;4587;51.434;6.788;2023-03-03T07:55:53;2.50;99.90
9103;DHT22;4587;51.434;6.788;2023-03-03T07:58:28;2.40;99.90
9103;DHT22;4587;51.434;6.788;2023-03-03T08:03:44;2.50;99.90
9103;DHT22;4587;51.434;6.788;2023-03-03T08:08:56;2.60;99.90
9103;DHT22;4587;51.434;6.788;2023-03-03T08:11:26;2.50;99.90
9103;DHT22;4587;51.434;6.788;2023-03-03T08:13:52;2.70;99.90
9103;DHT22;4587;51.434;6.788;2023-03-03T08:16:34;2.70;99.90
9103;DHT22;4587;51.434;6.788;2023-03-03T08:19:02;2.70;99.90
9103;DHT22;4587;51.434;6.788;2023-03-03T08:21:28;2.80;99.90
9103;DHT22;4587;51.434;6.788;2023-03-03T08:23:53;2.80;99.90
9103;DHT22;4587;51.434;6.788;2023-03-03T08:26:23;2.80;99.90
9103;DHT22;4587;51.434;6.788;2023-03-03T08:28:49;2.80;99.90
9103;DHT22;4587;51.434;6.788;2023-03-03T08:31:15;2.80;99.90
9103;DHT22;4587;51.434;6.788;2023-03-03T08:33:42;2.80;99.90
9103;DHT22;4587;51.434;6.788;2023-03-03T08:36:08;2.90;99.90
9103;DHT22;4587;51.434;6.788;2023-03-03T08:38:34;2.90;99.90
9103;DHT22;4587;51.434;6.788;2023-03-03T08:41:01;2.90;99.90
9103;DHT22;4587;51.434;6.788;2023-03-03T08:43:26;2.90;99.90
9103;DHT22;4587;51.434;6.788;2023-03-03T08:45:55;2.90;99.90
9103;DHT22;4587;51.434;6.788;2023-03-03T08:48:22;2.90;99.90
9103;DHT22;4587;51.434;6.788;2023-03-03T08:50:48;2.90;99.90
9103;DHT22;4587;51.434;6.788;2023-03-03T08:53:13;2.90;99.90
9103;DHT22;4587;51.434;6.788;2023-03-03T08:55:40;2.90;99.90
9103;DHT22;4587;51.434;6.788;2023-03-03T08:58:06;3.00;99.90
9103;DHT22;4587;51.434;6.788;2023-03-03T09:00:31;3.00;99.90
9103;DHT22;4587;51.434;6.788;2023-03-03T09:02:57;3.10;99.90
9103;DHT22;4587;51.434;6.788;2023-03-03T09:05:23;3.00;99.90
9103;DHT22;4587;51.434;6.788;2023-03-03T09:07:50;3.00;99.90
9103;DHT22;4587;51.434;6.788;2023-03-03T09:10:21;3.00;99.90
9103;DHT22;4587;51.434;6.788;2023-03-03T09:12:52;3.00;99.90
9103;DHT22;4587;51.434;6.788;2023-03-03T09:17:49;3.10;99.90
9103;DHT22;4587;51.434;6.788;2023-03-03T09:20:30;3.10;99.90
9103;DHT22;4587;51.434;6.788;2023-03-03T09:25:49;3.20;99.90
9103;DHT22;4587;51.434;6.788;2023-03-03T09:28:26;3.30;99.90
9103;DHT22;4587;51.434;6.788;2023-03-03T09:30:56;3.40;99.90
9103;DHT22;4587;51.434;6.788;2023-03-03T09:33:39;3.40;99.90
9103;DHT22;4587;51.434;6.788;2023-03-03T09:36:27;3.50;99.90
9103;DHT22;4587;51.434;6.788;2023-03-03T09:38:55;3.40;99.90
9103;DHT22;4587;51.434;6.788;2023-03-03T09:47:21;3.60;99.90
9103;DHT22;4587;51.434;6.788;2023-03-03T09:50:23;3.60;99.90
9103;DHT22;4587;51.434;6.788;2023-03-03T09:55:49;3.60;99.90
9103;DHT22;4587;51.434;6.788;2023-03-03T09:58:33;3.50;99.90
9103;DHT22;4587;51.434;6.788;2023-03-03T10:03:53;3.70;99.90
9103;DHT22;4587;51.434;6.788;2023-03-03T10:12:08;3.70;99.90
9103;DHT22;4587;51.434;6.788;2023-03-03T10:22:51;3.70;99.90
9103;DHT22;4587;51.434;6.788;2023-03-03T10:30:58;4.00;99.90
9103;DHT22;4587;51.434;6.788;2023-03-03T10:33:56;4.00;99.90
9103;DHT22;4587;51.434;6.788;2023-03-03T10:47:54;4.20;99.90
9103;DHT22;4587;51.434;6.788;2023-03-03T10:50:47;4.20;99.90
9103;DHT22;4587;51.434;6.788;2023-03-03T10:58:51;4.30;99.90
9103;DHT22;4587;51.434;6.788;2023-03-03T11:07:05;4.30;99.90
9103;DHT22;4587;51.434;6.788;2023-03-03T11:20:41;4.30;99.90
9103;DHT22;4587;51.434;6.788;2023-03-03T11:23:41;4.20;99.90
9103;DHT22;4587;51.434;6.788;2023-03-03T11:26:10;4.10;99.90
9103;DHT22;4587;51.434;6.788;2023-03-03T11:29:08;4.20;99.90
9103;DHT22;4587;51.434;6.788;2023-03-03T11:31:57;4.30;99.90
9103;DHT22;4587;51.434;6.788;2023-03-03T11:37:00;4.20;99.90
9103;DHT22;4587;51.434;6.788;2023-03-03T11:39:27;4.30;99.90
9103;DHT22;4587;51.434;6.788;2023-03-03T11:42:25;4.40;99.90
9103;DHT22;4587;51.434;6.788;2023-03-03T11:45:10;4.40;99.90
9103;DHT22;4587;51.434;6.788;2023-03-03T11:50:25;4.60;99.90
9103;DHT22;4587;51.434;6.788;2023-03-03T11:53:04;4.60;99.90
9103;DHT22;4587;51.434;6.788;2023-03-03T11:58:24;4.60;99.90
9103;DHT22;4587;51.434;6.788;2023-03-03T12:01:18;4.70;99.90
9103;DHT22;4587;51.434;6.788;2023-03-03T12:03:56;4.70;99.90
9103;DHT22;4587;51.434;6.788;2023-03-03T12:07:02;4.80;99.90
9103;DHT22;4587;51.434;6.788;2023-03-03T12:12:14;4.90;99.90
9103;DHT22;4587;51.434;6.788;2023-03-03T12:34:44;5.10;99.90
9103;DHT22;4587;51.434;6.788;2023-03-03T12:37:38;5.30;99.90
9103;DHT22;4587;51.434;6.788;2023-03-03T12:43:01;5.40;99.90
9103;DHT22;4587;51.434;6.788;2023-03-03T12:48:17;5.40;99.90
9103;DHT22;4587;51.434;6.788;2023-03-03T12:56:37;5.70;99.90
9103;DHT22;4587;51.434;6.788;2023-03-03T12:59:24;5.80;99.90
9103;DHT22;4587;51.434;6.788;2023-03-03T13:04:40;6.10;99.90
9103;DHT22;4587;51.434;6.788;2023-03-03T13:12:55;5.90;99.90
9103;DHT22;4587;51.434;6.788;2023-03-03T13:15:45;5.90;99.90
9103;DHT22;4587;51.434;6.788;2023-03-03T13:18:29;5.80;99.90
9103;DHT22;4587;51.434;6.788;2023-03-03T13:21:31;5.70;99.90
9103;DHT22;4587;51.434;6.788;2023-03-03T13:24:25;5.70;99.90
9103;DHT22;4587;51.434;6.788;2023-03-03T13:27:06;5.70;99.90
9103;DHT22;4587;51.434;6.788;2023-03-03T13:32:21;5.80;99.90
9103;DHT22;4587;51.434;6.788;2023-03-03T13:35:02;5.80;99.90
9103;DHT22;4587;51.434;6.788;2023-03-03T13:37:46;5.70;99.90
9103;DHT22;4587;51.434;6.788;2023-03-03T13:40:16;5.70;99.90
9103;DHT22;4587;51.434;6.788;2023-03-03T13:42:50;5.80;99.90
9103;DHT22;4587;51.434;6.788;2023-03-03T13:47:52;5.90;99.90
9103;DHT22;4587;51.434;6.788;2023-03-03T13:53:46;6.00;99.90
9103;DHT22;4587;51.434;6.788;2023-03-03T13:59:13;6.00;99.90
9103;DHT22;4587;51.434;6.788;2023-03-03T14:01:51;6.00;99.90
9103;DHT22;4587;51.434;6.788;2023-03-03T14:07:10;6.10;99.90
9103;DHT22;4587;51.434;6.788;2023-03-03T14:09:51;6.20;99.90
9103;DHT22;4587;51.434;6.788;2023-03-03T14:12:33;6.20;99.90
9103;DHT22;4587;51.434;6.788;2023-03-03T14:20:26;6.40;99.90
9103;DHT22;4587;51.434;6.788;2023-03-03T14:23:00;6.40;99.90
9103;DHT22;4587;51.434;6.788;2023-03-03T14:25:27;6.40;99.90
9103;DHT22;4587;51.434;6.788;2023-03-03T14:28:20;6.40;99.90
9103;DHT22;4587;51.434;6.788;2023-03-03T14:30:46;6.50;99.90
9103;DHT22;4587;51.434;6.788;2023-03-03T14:35:40;6.60;99.90
9103;DHT22;4587;51.434;6.788;2023-03-03T14:38:14;6.60;99.90
9103;DHT22;4587;51.434;6.788;2023-03-03T14:40:42;6.50;99.90
9103;DHT22;4587;51.434;6.788;2023-03-03T14:43:38;6.50;99.90
9103;DHT22;4587;51.434;6.788;2023-03-03T14:48:57;6.60;99.90
9103;DHT22;4587;51.434;6.788;2023-03-03T14:51:26;6.50;99.90
9103;DHT22;4587;51.434;6.788;2023-03-03T14:53:54;6.60;99.90
9103;DHT22;4587;51.434;6.788;2023-03-03T14:56:34;6.60;99.90
9103;DHT22;4587;51.434;6.788;2023-03-03T14:59:21;6.70;99.90
9103;DHT22;4587;51.434;6.788;2023-03-03T15:04:33;6.70;99.90
9103;DHT22;4587;51.434;6.788;2023-03-03T15:07:26;6.80;99.90
9103;DHT22;4587;51.434;6.788;2023-03-03T15:09:53;6.90;99.90
9103;DHT22;4587;51.434;6.788;2023-03-03T15:17:39;6.90;99.90
9103;DHT22;4587;51.434;6.788;2023-03-03T15:44:37;7.00;99.90
9103;DHT22;4587;51.434;6.788;2023-03-03T16:01:06;6.80;99.90
9103;DHT22;4587;51.434;6.788;2023-03-03T16:03:39;6.80;99.90
9103;DHT22;4587;51.434;6.788;2023-03-03T16:06:18;6.90;99.90
9103;DHT22;4587;51.434;6.788;2023-03-03T16:11:38;6.80;99.90
9103;DHT22;4587;51.434;6.788;2023-03-03T16:19:55;6.60;99.90
9103;DHT22;4587;51.434;6.788;2023-03-03T16:22:55;6.60;99.90
9103;DHT22;4587;51.434;6.788;2023-03-03T16:25:41;6.60;99.90
9103;DHT22;4587;51.434;6.788;2023-03-03T16:28:24;6.60;99.90
9103;DHT22;4587;51.434;6.788;2023-03-03T16:31:01;6.50;99.90
9103;DHT22;4587;51.434;6.788;2023-03-03T16:36:21;6.40;99.90
9103;DHT22;4587;51.434;6.788;2023-03-03T16:41:50;6.40;99.90
9103;DHT22;4587;51.434;6.788;2023-03-03T16:44:40;6.30;99.90
9103;DHT22;4587;51.434;6.788;2023-03-03T16:47:32;6.20;99.90
9103;DHT22;4587;51.434;6.788;2023-03-03T16:55:41;6.20;99.90
9103;DHT22;4587;51.434;6.788;2023-03-03T17:01:07;6.10;99.90
9103;DHT22;4587;51.434;6.788;2023-03-03T17:03:52;6.00;99.90
9103;DHT22;4587;51.434;6.788;2023-03-03T17:09:43;5.80;99.90
9103;DHT22;4587;51.434;6.788;2023-03-03T17:18:01;5.60;99.90
9103;DHT22;4587;51.434;6.788;2023-03-03T17:20:31;5.50;99.90
9103;DHT22;4587;51.434;6.788;2023-03-03T17:26:10;5.40;99.90
9103;DHT22;4587;51.434;6.788;2023-03-03T17:42:19;5.00;99.90
9103;DHT22;4587;51.434;6.788;2023-03-03T17:45:02;4.90;99.90
9103;DHT22;4587;51.434;6.788;2023-03-03T18:01:44;4.90;99.90
9103;DHT22;4587;51.434;6.788;2023-03-03T18:23:46;4.70;99.90
9103;DHT22;4587;51.434;6.788;2023-03-03T18:26:35;4.80;99.90
9103;DHT22;4587;51.434;6.788;2023-03-03T18:42:38;5.30;99.90
9103;DHT22;4587;51.434;6.788;2023-03-03T18:50:32;5.40;99.90
9103;DHT22;4587;51.434;6.788;2023-03-03T18:53:20;5.40;99.90
9103;DHT22;4587;51.434;6.788;2023-03-03T18:55:52;5.40;99.90
9103;DHT22;4587;51.434;6.788;2023-03-03T19:03:36;5.50;99.90
9103;DHT22;4587;51.434;6.788;2023-03-03T19:06:04;5.50;99.90
9103;DHT22;4587;51.434;6.788;2023-03-03T19:08:53;5.40;99.90
9103;DHT22;4587;51.434;6.788;2023-03-03T19:11:54;5.50;99.90
9103;DHT22;4587;51.434;6.788;2023-03-03T19:14:31;5.50;99.90
9103;DHT22;4587;51.434;6.788;2023-03-03T19:20:06;5.50;99.90
9103;DHT22;4587;51.434;6.788;2023-03-03T19:22:44;5.60;99.90
9103;DHT22;4587;51.434;6.788;2023-03-03T19:25:20;5.60;99.90
9103;DHT22;4587;51.434;6.788;2023-03-03T19:27:54;5.60;99.90
9103;DHT22;4587;51.434;6.788;2023-03-03T19:31:06;5.60;99.90
9103;DHT22;4587;51.434;6.788;2023-03-03T19:36:21;5.60;99.90
9103;DHT22;4587;51.434;6.788;2023-03-03T19:39:05;5.70;99.90
9103;DHT22;4587;51.434;6.788;2023-03-03T19:41:55;5.70;99.90
9103;DHT22;4587;51.434;6.788;2023-03-03T19:44:38;5.70;99.90
9103;DHT22;4587;51.434;6.788;2023-03-03T19:52:28;5.70;99.90
9103;DHT22;4587;51.434;6.788;2023-03-03T20:00:26;5.70;99.90
9103;DHT22;4587;51.434;6.788;2023-03-03T20:16:52;6.10;99.90
9103;DHT22;4587;51.434;6.788;2023-03-03T20:22:40;6.00;99.90
9103;DHT22;4587;51.434;6.788;2023-03-03T20:25:22;6.10;99.90
9103;DHT22;4587;51.434;6.788;2023-03-03T20:27:59;6.10;99.90
9103;DHT22;4587;51.434;6.788;2023-03-03T20:30:42;6.10;99.90
9103;DHT22;4587;51.434;6.788;2023-03-03T20:33:34;6.10;99.90
9103;DHT22;4587;51.434;6.788;2023-03-03T20:38:53;6.30;99.90
9103;DHT22;4587;51.434;6.788;2023-03-03T20:44:13;6.30;99.90
9103;DHT22;4587;51.434;6.788;2023-03-03T20:49:32;6.20;99.90
9103;DHT22;4587;51.434;6.788;2023-03-03T20:52:07;6.20;99.90
9103;DHT22;4587;51.434;6.788;2023-03-03T21:00:26;6.40;99.90
9103;DHT22;4587;51.434;6.788;2023-03-03T21:03:31;6.40;99.90
9103;DHT22;4587;51.434;6.788;2023-03-03T21:05:59;6.30;99.90
9103;DHT22;4587;51.434;6.788;2023-03-03T21:08:45;6.40;99.90
9103;DHT22;4587;51.434;6.788;2023-03-03T21:11:15;6.30;99.90
9103;DHT22;4587;51.434;6.788;2023-03-03T21:13:47;6.30;99.90
9103;DHT22;4587;51.434;6.788;2023-03-03T21:18:58;6.30;99.90
9103;DHT22;4587;51.434;6.788;2023-03-03T21:21:25;6.30;99.90
9103;DHT22;4587;51.434;6.788;2023-03-03T21:23:51;6.30;99.90
9103;DHT22;4587;51.434;6.788;2023-03-03T21:26:47;6.30;99.90
9103;DHT22;4587;51.434;6.788;2023-03-03T21:29:29;6.30;99.90
9103;DHT22;4587;51.434;6.788;2023-03-03T21:32:06;6.20;99.90
9103;DHT22;4587;51.434;6.788;2023-03-03T21:34:37;6.20;99.90
9103;DHT22;4587;51.434;6.788;2023-03-03T21:37:12;6.20;99.90
9103;DHT22;4587;51.434;6.788;2023-03-03T21:39:40;6.20;99.90
9103;DHT22;4587;51.434;6.788;2023-03-03T21:42:16;6.20;99.90
9103;DHT22;4587;51.434;6.788;2023-03-03T21:44:48;6.10;99.90
9103;DHT22;4587;51.434;6.788;2023-03-03T21:47:19;6.10;99.90
9103;DHT22;4587;51.434;6.788;2023-03-03T21:49:46;6.10;99.90
9103;DHT22;4587;51.434;6.788;2023-03-03T21:52:14;6.10;99.90
9103;DHT22;4587;51.434;6.788;2023-03-03T21:54:41;6.10;99.90
9103;DHT22;4587;51.434;6.788;2023-03-03T21:57:07;6.10;99.90
9103;DHT22;4587;51.434;6.788;2023-03-03T21:59:33;6.00;99.90
9103;DHT22;4587;51.434;6.788;2023-03-03T22:01:58;6.00;99.90
9103;DHT22;4587;51.434;6.788;2023-03-03T22:04:24;6.00;99.90
9103;DHT22;4587;51.434;6.788;2023-03-03T22:06:50;6.00;99.90
9103;DHT22;4587;51.434;6.788;2023-03-03T22:09:17;6.00;99.90
9103;DHT22;4587;51.434;6.788;2023-03-03T22:11:43;6.00;99.90
9103;DHT22;4587;51.434;6.788;2023-03-03T22:14:08;6.00;99.90
9103;DHT22;4587;51.434;6.788;2023-03-03T22:16:34;6.00;99.90
9103;DHT22;4587;51.434;6.788;2023-03-03T22:19:01;6.00;99.90
9103;DHT22;4587;51.434;6.788;2023-03-03T22:21:26;6.00;99.90
9103;DHT22;4587;51.434;6.788;2023-03-03T22:23:52;6.00;99.90
9103;DHT22;4587;51.434;6.788;2023-03-03T22:26:17;6.00;99.90
9103;DHT22;4587;51.434;6.788;2023-03-03T22:28:46;6.10;99.90
9103;DHT22;4587;51.434;6.788;2023-03-03T22:31:12;6.00;99.90
9103;DHT22;4587;51.434;6.788;2023-03-03T22:33:37;6.10;99.90
9103;DHT22;4587;51.434;6.788;2023-03-03T22:36:03;6.00;99.90
9103;DHT22;4587;51.434;6.788;2023-03-03T22:38:29;6.00;99.90
9103;DHT22;4587;51.434;6.788;2023-03-03T22:40:54;6.10;99.90
9103;DHT22;4587;51.434;6.788;2023-03-03T22:43:20;6.10;99.90
9103;DHT22;4587;51.434;6.788;2023-03-03T22:45:46;6.10;99.90
9103;DHT22;4587;51.434;6.788;2023-03-03T22:48:12;6.10;99.90
9103;DHT22;4587;51.434;6.788;2023-03-03T22:50:38;6.00;99.90
9103;DHT22;4587;51.434;6.788;2023-03-03T22:53:06;5.90;99.90
9103;DHT22;4587;51.434;6.788;2023-03-03T22:55:31;5.90;99.90
9103;DHT22;4587;51.434;6.788;2023-03-03T22:58:05;6.00;99.90
9103;DHT22;4587;51.434;6.788;2023-03-03T23:00:30;6.00;99.90